Time;durP1;ratioP1;P1;durP2;ratioP2;P2;SDS_P1;SDS_P2;PMS_P1;PMS_P2;Temp;Humidity;BMP_temperature;BMP_pressure;BME280_temperature;BME280_humidity;BME280_pressure;Samples;Min_cycle;Max_cycle;Signal;HPM_P1;HPM_P2
2022/03/01 00:00:51;;;;;;;15.30;10.65;;;0.10;17.90;;;-0.04;58.34;103065.47;5017146;28;20621;-74
2022/03/01 00:03:20;;;;;;;11.13;9.65;;;0.00;18.00;;;-0.05;58.24;103073.56;5016996;28;20209;-74
2022/03/01 00:05:49;;;;;;;11.63;10.38;;;0.00;18.30;;;-0.01;58.55;103070.66;5000824;28;20189;-75
2022/03/01 00:08:20;;;;;;;14.98;11.10;;;0.00;18.80;;;0.00;58.28;103063.53;5019317;28;20566;-75
2022/03/01 00:10:49;;;;;;;13.35;9.60;;;0.00;18.60;;;-0.07;57.88;103070.09;5003449;28;20209;-74
2022/03/01 00:13:17;;;;;;;13.30;7.93;;;0.00;18.30;;;0.08;58.02;103073.75;5004836;28;20513;-75
2022/03/01 00:15:46;;;;;;;11.57;10.05;;;0.00;19.00;;;-0.05;58.59;103062.91;5022373;28;20182;-75
2022/03/01 00:18:16;;;;;;;14.90;10.30;;;0.00;18.30;;;-0.07;58.07;103070.09;5023605;28;20198;-74
2022/03/01 00:20:45;;;;;;;16.50;10.60;;;0.00;18.40;;;-0.06;57.92;103066.50;5023735;28;20210;-74
2022/03/01 00:23:13;;;;;;;14.88;10.80;;;0.00;18.20;;;-0.21;58.30;103073.50;5023411;28;20282;-74
2022/03/01 00:25:44;;;;;;;15.30;10.45;;;-0.10;18.50;;;-0.26;58.94;103070.22;5020767;28;20221;-74
2022/03/01 00:28:12;;;;;;;14.82;11.13;;;-0.10;19.10;;;-0.07;58.39;103062.13;5016086;28;20179;-73
2022/03/01 00:30:42;;;;;;;13.50;11.63;;;-0.10;19.80;;;-0.06;58.04;103050.53;5015901;28;20202;-73
2022/03/01 00:33:11;;;;;;;14.10;9.95;;;-0.10;19.40;;;-0.15;58.93;103057.22;5016087;28;20254;-73
2022/03/01 00:35:40;;;;;;;22.83;11.80;;;-0.10;19.30;;;-0.11;58.91;103055.25;5015883;28;20186;-74
2022/03/01 00:38:09;;;;;;;16.40;11.60;;;-0.10;20.00;;;-0.21;58.82;103043.38;5016029;28;20201;-74
2022/03/01 00:40:40;;;;;;;12.70;10.68;;;-0.10;19.40;;;-0.18;58.66;103043.19;5014853;28;20777;-75
2022/03/01 00:43:10;;;;;;;13.40;10.43;;;-0.10;19.60;;;-0.11;58.26;103039.28;4998016;28;20216;-75
2022/03/01 00:45:43;;;;;;;14.07;10.40;;;-0.10;19.40;;;-0.25;58.60;103040.00;5016024;28;20179;-73
2022/03/01 00:48:12;;;;;;;19.50;11.65;;;-0.20;18.80;;;-0.20;58.02;103040.63;5016459;28;20188;-75
2022/03/01 00:50:41;;;;;;;14.07;11.98;;;-0.10;19.40;;;-0.36;58.56;103041.50;5015412;28;20209;-74
2022/03/01 00:53:10;;;;;;;18.58;11.57;;;-0.20;27.10;;;-0.39;58.87;103029.22;5015772;28;20182;-74
2022/03/01 00:55:39;;;;;;;16.50;10.68;;;-0.30;19.30;;;-0.42;58.91;103037.34;5015241;28;20174;-74
2022/03/01 00:58:10;;;;;;;18.73;11.95;;;-0.30;19.60;;;-0.47;59.30;103040.25;5015454;28;20202;-74
2022/03/01 01:00:39;;;;;;;16.65;10.43;;;-0.40;19.90;;;-0.36;58.66;103045.03;5016090;28;20210;-75
2022/03/01 01:03:09;;;;;;;14.85;10.05;;;-0.30;19.90;;;-0.20;57.92;103026.47;5015170;28;20189;-74
2022/03/01 01:05:38;;;;;;;15.55;10.75;;;-0.30;20.20;;;-0.21;58.37;103046.03;5018284;28;20257;-74
2022/03/01 01:08:10;;;;;;;17.92;11.40;;;-0.20;20.20;;;-0.34;58.52;103051.13;5005114;28;20599;-75
2022/03/01 01:10:38;;;;;;;14.00;11.07;;;-0.20;20.00;;;-0.35;58.50;103040.56;5022986;28;20209;-74
2022/03/01 01:13:08;;;;;;;14.90;10.13;;;-0.30;27.50;;;-0.27;58.01;103030.38;5022246;28;20174;-75
2022/03/01 01:15:38;;;;;;;10.98;9.80;;;-0.30;20.00;;;-0.33;58.30;103043.97;5026689;28;20171;-73
2022/03/01 01:18:07;;;;;;;13.98;10.32;;;-0.30;20.40;;;-0.35;59.42;103040.56;5027307;28;20206;-75
2022/03/01 01:20:37;;;;;;;16.83;11.23;;;-0.30;21.40;;;-0.46;59.20;103034.00;5026663;28;20216;-75
2022/03/01 01:23:06;;;;;;;15.27;10.77;;;-0.30;21.50;;;-0.58;59.30;103025.78;5026674;28;20225;-76
2022/03/01 01:25:35;;;;;;;14.40;10.63;;;-0.40;21.40;;;-0.58;59.24;103031.13;5026157;28;20533;-76
2022/03/01 01:28:04;;;;;;;16.67;10.50;;;-0.50;21.50;;;-0.57;59.20;103039.00;5025648;28;20179;-75
2022/03/01 01:30:36;;;;;;;15.23;10.60;;;-0.50;21.80;;;-0.61;59.70;103026.78;5025541;28;20285;-75
2022/03/01 01:33:06;;;;;;;17.80;11.23;;;-0.50;21.70;;;-0.60;59.02;103028.53;5025791;28;20199;-74
2022/03/01 01:35:37;;;;;;;16.00;10.98;;;-0.50;21.80;;;-0.58;59.46;103025.78;5025649;28;20182;-75
2022/03/01 01:38:06;;;;;;;15.13;10.15;;;-0.50;22.20;;;-0.53;58.73;103035.22;5025684;28;20203;-75
2022/03/01 01:40:36;;;;;;;19.95;11.20;;;-0.50;22.50;;;-0.63;59.68;103020.69;5007429;28;20249;-74
2022/03/01 01:43:06;;;;;;;15.90;10.23;;;-0.50;22.80;;;-0.52;59.62;103026.31;5024359;28;20190;-74
2022/03/01 01:45:37;;;;;;;13.73;11.43;;;-0.50;23.30;;;-0.60;59.98;103028.53;5023794;28;20178;-73
2022/03/01 01:48:06;;;;;;;13.52;11.07;;;-0.50;23.10;;;-0.50;59.21;103021.78;5006893;28;20617;-73
2022/03/01 01:50:36;;;;;;;19.17;12.40;;;-0.40;23.30;;;-0.49;58.96;103026.19;5023948;28;20349;-74
2022/03/01 01:53:05;;;;;;;21.75;12.85;;;-0.40;23.10;;;-0.71;59.60;103025.53;5024545;28;20243;-73
2022/03/01 01:55:34;;;;;;;51.53;27.27;;;-0.60;22.90;;;-0.70;59.69;103026.41;5024366;28;20190;-74
2022/03/01 01:58:03;;;;;;;21.23;14.23;;;-0.60;23.50;;;-0.59;59.95;103024.94;5023102;28;20224;-75
2022/03/01 02:00:33;;;;;;;19.98;11.60;;;-0.60;23.70;;;-0.51;59.00;103025.38;5025272;28;20237;-74
2022/03/01 02:03:04;;;;;;;20.33;14.35;;;-0.50;24.10;;;-0.73;59.54;103024.78;5024487;28;20174;-74
2022/03/01 02:05:32;;;;;;;16.45;11.43;;;-0.60;23.90;;;-0.75;60.27;103031.97;5018446;28;20575;-74
2022/03/01 02:08:01;;;;;;;13.80;12.32;;;-0.60;24.10;;;-0.83;59.91;103026.19;5018302;28;20205;-75
2022/03/01 02:10:31;;;;;;;16.73;11.80;;;-0.70;25.00;;;-0.95;60.84;103006.38;5019978;28;20221;-75
2022/03/01 02:13:00;;;;;;;18.35;11.85;;;-0.80;24.70;;;-0.91;60.62;103018.56;5023234;28;20179;-73
2022/03/01 02:15:30;;;;;;;22.98;10.65;;;-0.80;25.60;;;-0.71;60.60;103009.59;5022461;28;20636;-74
2022/03/01 02:17:59;;;;;;;17.27;11.23;;;-0.70;26.70;;;-0.79;59.96;103011.78;5022166;28;20174;-75
2022/03/01 02:20:32;;;;;;;17.40;11.77;;;-0.70;26.30;;;-0.88;60.29;103009.59;5024606;28;20209;-74
2022/03/01 02:23:01;;;;;;;20.73;13.43;;;-0.70;26.50;;;-0.90;60.91;103008.78;5022396;28;20190;-74
2022/03/01 02:25:31;;;;;;;14.25;10.68;;;-0.80;26.90;;;-0.92;60.54;103005.38;5020647;28;20229;-73
2022/03/01 02:28:01;;;;;;;16.50;11.00;;;-0.80;27.00;;;-0.85;60.41;103012.09;5021848;28;20178;-73
2022/03/01 02:30:33;;;;;;;16.58;11.27;;;-0.80;27.50;;;-0.79;60.40;103006.47;5004457;28;20331;-74
2022/03/01 02:33:02;;;;;;;15.80;12.38;;;-0.70;28.00;;;-0.89;60.51;102992.78;5005295;28;20611;-74
2022/03/01 02:35:35;;;;;;;18.20;11.15;;;-0.80;27.40;;;-1.08;61.67;102993.78;5022980;28;20205;-73
2022/03/01 02:38:04;;;;;;;18.13;12.52;;;-0.90;29.00;;;-0.99;60.49;102993.31;5020201;28;20179;-74
2022/03/01 02:40:35;;;;;;;15.70;12.10;;;-0.90;28.50;;;-1.14;61.59;102994.94;5023070;28;20388;-74
2022/03/01 02:43:05;;;;;;;15.88;10.80;;;-1.00;28.10;;;-1.06;61.31;102997.19;5022083;28;20282;-74
2022/03/01 02:45:36;;;;;;;14.10;11.05;;;-1.00;29.30;;;-1.06;60.51;102997.19;5022392;28;20240;-74
2022/03/01 02:48:05;;;;;;;17.92;11.00;;;-1.00;28.90;;;-1.14;61.15;102994.94;5022545;28;20245;-74
2022/03/01 02:50:36;;;;;;;16.15;11.38;;;-1.00;29.20;;;-0.97;61.33;103007.41;5021188;28;20720;-75
2022/03/01 02:53:05;;;;;;;16.05;11.30;;;-0.90;30.90;;;-0.95;60.99;102990.41;5021426;28;20188;-75
2022/03/01 02:55:35;;;;;;;15.73;10.38;;;-0.90;30.90;;;-1.11;61.25;102984.13;5023527;28;20178;-74
2022/03/01 02:58:04;;;;;;;14.93;11.07;;;-1.00;30.00;;;-1.02;60.74;102993.47;5025847;28;20182;-74
2022/03/01 03:00:34;;;;;;;14.32;10.15;;;-0.90;30.00;;;-1.18;61.18;102998.69;5026221;28;20265;-74
2022/03/01 03:03:03;;;;;;;20.10;11.15;;;-1.00;29.90;;;-1.08;60.87;102996.44;5028095;28;20258;-74
2022/03/01 03:05:33;;;;;;;13.80;10.50;;;-1.00;30.00;;;-1.07;61.00;102992.84;5011674;28;20205;-74
2022/03/01 03:08:04;;;;;;;15.65;10.88;;;-1.00;30.30;;;-1.03;60.82;102999.72;5029589;28;20177;-74
2022/03/01 03:10:34;;;;;;;17.23;11.85;;;-1.00;30.10;;;-1.10;60.66;102996.50;5030048;28;20240;-73
2022/03/01 03:13:04;;;;;;;16.13;11.82;;;-1.00;30.00;;;-1.14;60.86;102994.06;5029070;28;20182;-75
2022/03/01 03:15:33;;;;;;;18.38;11.20;;;-1.00;30.10;;;-1.11;61.63;102994.78;5025651;28;20194;-74
2022/03/01 03:18:03;;;;;;;16.77;11.55;;;-1.00;32.00;;;-1.25;62.01;102996.38;5007895;28;20186;-74
2022/03/01 03:20:32;;;;;;;13.52;10.95;;;-1.10;32.40;;;-1.27;62.10;102993.81;5007994;28;20225;-74
2022/03/01 03:23:03;;;;;;;13.85;10.30;;;-1.10;32.50;;;-1.22;61.21;103001.56;5007890;28;20209;-74
2022/03/01 03:25:33;;;;;;;13.00;9.90;;;-1.10;32.40;;;-1.24;61.89;102998.09;5006536;28;20616;-73
2022/03/01 03:28:03;;;;;;;20.92;11.18;;;-1.10;33.20;;;-1.39;61.84;102984.63;5025471;28;20181;-74
2022/03/01 03:30:33;;;;;;;16.52;10.85;;;-1.20;33.10;;;-1.19;61.35;102985.47;5025970;28;20570;-74
2022/03/01 03:33:02;;;;;;;14.07;10.30;;;-1.20;34.70;;;-1.24;61.43;102987.47;5026229;28;20178;-75
2022/03/01 03:35:31;;;;;;;16.73;11.18;;;-1.10;33.90;;;-1.18;61.47;102993.38;5025311;28;20365;-73
2022/03/01 03:38:01;;;;;;;19.75;12.30;;;-1.10;34.20;;;-1.13;61.88;102986.03;5025520;28;20212;-74
2022/03/01 03:40:32;;;;;;;22.52;12.90;;;-1.10;35.00;;;-1.24;62.03;102982.16;5027199;28;20209;-74
2022/03/01 03:43:01;;;;;;;16.50;11.07;;;-1.10;35.50;;;-1.37;62.54;102981.94;5026674;28;20603;-74
2022/03/01 03:45:30;;;;;;;16.08;9.75;;;-1.20;35.20;;;-1.29;62.21;102984.19;5024411;28;20232;-74
2022/03/01 03:47:59;;;;;;;15.85;10.77;;;-1.20;36.80;;;-1.31;61.62;102982.47;5025467;28;20261;-74
2022/03/01 03:50:28;;;;;;;15.70;10.45;;;-1.20;35.80;;;-1.07;61.28;102980.41;5026652;28;20213;-75
2022/03/01 03:52:58;;;;;;;14.45;11.10;;;-1.10;35.00;;;-1.14;61.36;102984.31;5026365;28;20178;-75
2022/03/01 03:55:27;;;;;;;15.90;11.35;;;-1.10;34.40;;;-1.05;60.90;102988.28;5025741;28;20198;-74
2022/03/01 03:57:58;;;;;;;17.13;11.02;;;-1.10;34.40;;;-1.21;61.41;102987.34;5025608;28;20293;-74
2022/03/01 04:00:28;;;;;;;18.85;13.18;;;-1.10;34.00;;;-1.34;61.31;102985.28;5027264;28;20439;-74
2022/03/01 04:02:59;;;;;;;19.10;11.90;;;-1.20;33.60;;;-1.36;61.27;102984.50;5005792;28;20247;-74
2022/03/01 04:05:30;;;;;;;19.30;13.15;;;-1.20;34.60;;;-1.21;61.19;102976.72;5022356;28;20202;-75
2022/03/01 04:08:00;;;;;;;14.05;10.48;;;-1.20;45.20;;;-1.34;61.70;102987.94;5020799;28;20199;-73
2022/03/01 04:10:30;;;;;;;15.23;11.43;;;-1.20;35.00;;;-1.33;61.22;102981.69;5022590;28;20245;-75
2022/03/01 04:13:02;;;;;;;13.52;9.77;;;-1.20;35.20;;;-1.26;61.60;102978.75;5022832;28;20194;-73
2022/03/01 04:15:32;;;;;;;13.85;11.00;;;-1.20;35.50;;;-1.31;61.13;102973.66;5007605;28;20648;-74
2022/03/01 04:18:03;;;;;;;19.42;11.43;;;-1.30;34.80;;;-1.35;60.90;102980.03;5008990;28;20186;-73
2022/03/01 04:20:33;;;;;;;23.63;12.88;;;-1.30;35.30;;;-1.36;61.77;102979.19;5025167;28;20206;-74
2022/03/01 04:23:04;;;;;;;16.60;10.45;;;-1.30;36.50;;;-1.43;61.71;102966.28;5008673;28;20193;-75
2022/03/01 04:25:34;;;;;;;17.02;12.48;;;-1.30;36.60;;;-1.42;61.51;102975.97;5026199;28;20190;-74
2022/03/01 04:28:05;;;;;;;15.63;10.70;;;-1.30;36.50;;;-1.36;61.60;102960.59;5025295;28;20182;-74
2022/03/01 04:30:36;;;;;;;21.55;10.77;;;-1.30;36.90;;;-1.27;61.43;102966.41;5024935;28;20237;-73
2022/03/01 04:33:07;;;;;;;13.82;10.07;;;-1.30;36.80;;;-1.33;61.69;102963.09;5025660;28;20179;-73
2022/03/01 04:35:36;;;;;;;14.23;10.65;;;-1.20;37.70;;;-1.39;61.54;102954.56;5008610;28;20190;-75
2022/03/01 04:38:08;;;;;;;16.33;10.48;;;-1.30;37.70;;;-1.41;61.83;102969.72;5031119;28;20172;-75
2022/03/01 04:40:37;;;;;;;16.25;11.25;;;-1.30;38.10;;;-1.36;61.84;102963.25;5020027;28;20245;-74
2022/03/01 04:43:10;;;;;;;14.85;11.02;;;-1.30;37.70;;;-1.39;61.74;102957.22;5021202;28;20238;-76
2022/03/01 04:45:40;;;;;;;15.10;11.20;;;-1.30;37.60;;;-1.35;61.70;102954.34;5003702;28;20665;-75
2022/03/01 04:48:12;;;;;;;23.83;14.07;;;-1.30;36.70;;;-1.37;61.94;102958.03;5020931;28;20185;-75
2022/03/01 04:50:42;;;;;;;15.10;10.50;;;-1.30;37.00;;;-1.36;61.74;102965.06;5020452;28;20233;-74
2022/03/01 04:53:12;;;;;;;13.73;10.55;;;-1.30;46.80;;;-1.29;61.38;102961.16;5003133;28;20564;-74
2022/03/01 04:55:41;;;;;;;14.93;11.68;;;-1.30;37.20;;;-1.34;61.30;102964.03;5019556;28;20201;-74
2022/03/01 04:58:17;;;;;;;16.15;11.88;;;-1.30;36.50;;;-1.41;61.25;102965.28;5021612;28;20185;-75
2022/03/01 05:00:47;;;;;;;13.48;10.63;;;-1.30;36.60;;;-1.29;61.03;102962.94;5020927;28;20292;-74
2022/03/01 05:03:16;;;;;;;19.80;11.43;;;-1.30;36.10;;;-1.20;60.65;102958.03;5019078;28;20182;-74
2022/03/01 05:05:45;;;;;;;19.52;10.50;;;-1.20;35.70;;;-1.31;61.03;102955.06;5015724;28;20182;-73
2022/03/01 05:08:17;;;;;;;15.68;10.43;;;-1.20;35.40;;;-1.28;60.35;102954.03;5015613;28;20189;-75
2022/03/01 05:10:47;;;;;;;19.70;11.48;;;-1.20;35.10;;;-1.34;60.30;102953.41;5016192;28;20198;-74
2022/03/01 05:13:17;;;;;;;15.73;10.55;;;-1.20;34.90;;;-1.28;60.52;102962.00;5015822;28;20174;-76
2022/03/01 05:15:46;;;;;;;18.13;12.18;;;-1.20;35.80;;;-1.46;60.67;102951.38;5015627;28;20683;-74
2022/03/01 05:18:15;;;;;;;16.75;10.88;;;-1.30;34.90;;;-1.45;61.92;102954.84;5015202;28;20187;-74
2022/03/01 05:20:44;;;;;;;16.73;11.10;;;-1.30;36.30;;;-1.39;61.63;102955.44;5016079;28;20217;-75
2022/03/01 05:23:13;;;;;;;20.35;11.55;;;-1.30;36.90;;;-1.34;60.94;102966.69;5014560;28;20717;-74
2022/03/01 05:25:44;;;;;;;17.10;11.57;;;-1.30;37.00;;;-1.24;60.24;102959.13;5015123;28;20182;-75
2022/03/01 05:28:13;;;;;;;20.65;11.40;;;-1.20;36.60;;;-1.37;60.60;102956.22;5015082;28;20229;-74
2022/03/01 05:30:43;;;;;;;16.08;11.05;;;-1.30;35.10;;;-1.41;60.57;102959.97;5014553;28;20280;-75
2022/03/01 05:33:13;;;;;;;14.07;8.70;;;-1.30;35.70;;;-1.39;60.54;102960.75;5014892;28;20171;-74
2022/03/01 05:35:44;;;;;;;15.88;9.80;;;-1.30;34.70;;;-1.42;60.17;102962.69;5014822;28;20174;-74
2022/03/01 05:38:13;;;;;;;19.50;12.15;;;-1.30;35.20;;;-1.44;61.34;102960.09;5014738;28;20182;-73
2022/03/01 05:40:42;;;;;;;14.70;11.10;;;-1.30;35.60;;;-1.44;60.20;102969.84;5015918;28;20710;-75
2022/03/01 05:43:12;;;;;;;24.85;11.00;;;-1.30;34.60;;;-1.23;60.99;102963.50;5017311;28;20194;-75
2022/03/01 05:45:44;;;;;;;19.30;11.73;;;-1.30;35.20;;;-1.28;60.19;102962.00;5017169;28;20264;-74
2022/03/01 05:48:14;;;;;;;15.48;10.50;;;-1.20;35.20;;;-1.17;60.56;102968.53;5019107;28;20661;-75
2022/03/01 05:50:43;;;;;;;22.38;12.35;;;-1.20;35.70;;;-1.30;60.55;102978.00;5018450;28;20635;-74
2022/03/01 05:53:12;;;;;;;13.80;10.48;;;-1.20;34.70;;;-1.17;59.32;102968.53;5019736;28;20183;-74
2022/03/01 05:55:41;;;;;;;14.30;9.52;;;-1.10;34.70;;;-1.30;60.61;102967.38;5020511;28;20206;-74
2022/03/01 05:58:10;;;;;;;18.73;10.60;;;-1.20;34.20;;;-1.21;59.69;102972.25;5019708;28;20178;-74
2022/03/01 06:00:39;;;;;;;15.45;10.48;;;-1.20;35.10;;;-1.27;59.97;102977.88;5004074;28;20264;-74
2022/03/01 06:03:12;;;;;;;19.27;10.55;;;-1.20;34.60;;;-1.26;60.24;102968.13;5023317;28;20172;-75
2022/03/01 06:05:41;;;;;;;19.65;10.48;;;-1.20;34.00;;;-1.13;59.20;102969.22;5025015;28;20205;-74
2022/03/01 06:08:10;;;;;;;16.17;10.02;;;-1.10;33.20;;;-1.14;59.61;102972.81;5023061;28;20185;-75
2022/03/01 06:10:40;;;;;;;13.48;10.27;;;-1.10;33.00;;;-1.09;58.82;102974.31;5007994;28;20221;-75
2022/03/01 06:13:09;;;;;;;16.17;11.38;;;-1.10;32.50;;;-1.14;59.25;102972.81;5023356;28;20257;-74
2022/03/01 06:15:38;;;;;;;10.75;9.27;;;-1.10;32.10;;;-1.05;59.24;102972.34;5020896;28;20194;-74
2022/03/01 06:18:07;;;;;;;16.88;11.23;;;-1.00;32.90;;;-1.04;59.28;102971.41;5003193;28;20190;-73
2022/03/01 06:20:39;;;;;;;13.75;9.82;;;-1.00;32.50;;;-1.02;59.01;102980.19;5020879;28;20210;-75
2022/03/01 06:23:09;;;;;;;12.90;9.98;;;-1.00;32.50;;;-0.88;58.71;102975.03;5004170;28;20252;-75
2022/03/01 06:25:46;;;;;;;14.20;10.60;;;-1.00;32.50;;;-0.83;59.20;102978.31;5004445;28;20186;-74
2022/03/01 06:28:16;;;;;;;16.15;10.50;;;-0.90;32.60;;;-0.90;58.63;102977.75;5002620;28;20256;-73
2022/03/01 06:30:45;;;;;;;14.52;11.10;;;-0.80;31.60;;;-0.87;57.98;102982.03;5020217;28;20210;-74
2022/03/01 06:33:16;;;;;;;16.98;10.93;;;-0.80;31.30;;;-0.66;57.65;102980.97;5018569;28;20174;-74
2022/03/01 06:35:48;;;;;;;16.27;9.88;;;-0.70;31.40;;;-0.72;58.20;102980.41;5018829;28;20230;-74
2022/03/01 06:38:17;;;;;;;14.23;9.20;;;-0.70;30.50;;;-0.61;58.03;102967.44;5018745;28;20210;-74
2022/03/01 06:40:46;;;;;;;18.52;11.60;;;-0.60;30.70;;;-0.58;57.31;102968.13;5019522;28;20221;-73
2022/03/01 06:43:20;;;;;;;14.80;11.30;;;-0.60;30.00;;;-0.44;57.18;102968.25;5017095;28;20189;-74
2022/03/01 06:45:49;;;;;;;15.15;10.43;;;-0.50;30.70;;;-0.49;57.37;102962.34;5016193;28;20616;-74
2022/03/01 06:48:18;;;;;;;19.52;12.02;;;-0.50;30.00;;;-0.32;57.39;102968.56;5017733;28;20178;-74
2022/03/01 06:50:49;;;;;;;17.67;10.80;;;-0.40;29.90;;;-0.31;56.38;102971.13;5021004;28;20751;-75
2022/03/01 06:53:18;;;;;;;11.38;9.07;;;-0.40;30.00;;;-0.20;56.52;102967.91;5019829;28;20204;-72
2022/03/01 06:55:47;;;;;;;13.10;9.45;;;-0.30;29.40;;;-0.15;56.27;102965.88;5015852;28;20181;-73
2022/03/01 06:58:17;;;;;;;12.35;9.07;;;-0.20;29.30;;;-0.12;56.07;102973.66;5015724;28;20170;-73
2022/03/01 07:00:46;;;;;;;17.42;10.55;;;-0.20;28.70;;;-0.05;55.69;102967.09;5015880;28;20213;-74
2022/03/01 07:03:16;;;;;;;20.40;10.73;;;-0.10;28.20;;;0.07;55.97;102968.22;5017636;28;20178;-74
2022/03/01 07:05:45;;;;;;;14.98;10.93;;;0.00;28.20;;;0.07;55.61;102973.53;5018531;28;20194;-73
2022/03/01 07:08:20;;;;;;;15.85;9.93;;;0.00;27.70;;;0.26;55.25;102972.44;5016149;28;20252;-73
2022/03/01 07:10:50;;;;;;;25.38;11.57;;;0.10;28.60;;;0.35;54.79;102971.91;5020611;28;20221;-73
2022/03/01 07:13:19;;;;;;;14.60;10.18;;;0.30;28.30;;;0.44;55.24;102976.72;5023604;28;20175;-74
2022/03/01 07:15:48;;;;;;;13.27;10.25;;;0.30;27.80;;;0.60;54.64;102979.38;5023885;28;20422;-73
2022/03/01 07:18:17;;;;;;;16.13;9.85;;;0.50;28.50;;;0.69;54.37;102973.53;5024702;28;20186;-75
2022/03/01 07:20:46;;;;;;;15.82;10.02;;;0.60;27.50;;;0.81;54.41;102975.50;5023420;28;20305;-72
2022/03/01 07:23:17;;;;;;;13.73;10.30;;;0.70;27.30;;;0.96;54.21;102968.44;5021140;28;20201;-72
2022/03/01 07:25:46;;;;;;;15.02;10.35;;;0.80;27.40;;;0.93;52.92;102965.91;5024627;28;20179;-76
2022/03/01 07:28:15;;;;;;;19.63;12.18;;;0.80;26.30;;;0.97;52.92;102971.97;5025094;28;20438;-74
2022/03/01 07:30:44;;;;;;;18.30;11.82;;;0.90;25.50;;;1.15;52.74;102970.88;5021164;28;20289;-73
2022/03/01 07:33:13;;;;;;;15.05;11.57;;;1.00;25.20;;;1.21;52.72;102968.66;5023276;28;20503;-73
2022/03/01 07:35:42;;;;;;;16.65;11.65;;;1.10;25.20;;;1.41;51.84;102964.81;5028940;28;20202;-73
2022/03/01 07:38:12;;;;;;;20.15;12.52;;;1.20;25.70;;;1.39;51.88;102972.06;5013617;28;20447;-73
2022/03/01 07:40:43;;;;;;;17.95;11.18;;;1.30;24.40;;;1.59;51.27;102968.19;5031447;28;20221;-75
2022/03/01 07:43:12;;;;;;;18.55;10.90;;;1.40;23.90;;;1.74;50.82;102968.09;5025289;28;20719;-74
2022/03/01 07:45:41;;;;;;;14.73;10.20;;;1.60;23.60;;;1.86;50.74;102965.63;5024634;28;20234;-74
2022/03/01 07:48:12;;;;;;;13.82;10.32;;;1.70;23.50;;;1.84;50.27;102968.38;5007261;28;20226;-75
2022/03/01 07:50:42;;;;;;;16.42;11.02;;;1.70;22.60;;;1.95;50.18;102959.69;5026268;28;20673;-74
2022/03/01 07:53:11;;;;;;;15.90;10.23;;;1.80;22.20;;;1.97;50.56;102958.66;5025219;28;20653;-76
2022/03/01 07:55:45;;;;;;;14.50;10.57;;;1.90;21.70;;;2.22;49.93;102957.13;5022694;28;20257;-75
2022/03/01 07:58:15;;;;;;;13.07;9.63;;;2.00;22.00;;;2.33;50.02;102951.91;5025076;28;20618;-74
2022/03/01 08:00:45;;;;;;;16.77;9.85;;;2.10;21.90;;;2.30;49.08;102955.66;5029702;28;20229;-73
2022/03/01 08:03:14;;;;;;;15.93;10.45;;;2.20;20.90;;;2.39;48.92;102954.19;5030072;28;20170;-75
2022/03/01 08:05:45;;;;;;;15.85;9.52;;;2.30;20.80;;;2.38;48.77;102955.16;5028326;28;20217;-74
2022/03/01 08:08:14;;;;;;;12.40;8.60;;;2.30;20.00;;;2.50;49.11;102954.38;5008280;28;20201;-74
2022/03/01 08:10:46;;;;;;;15.43;10.70;;;2.30;19.60;;;2.50;48.61;102951.69;5025655;28;20530;-74
2022/03/01 08:13:36;;;;;;;15.52;11.65;;;2.40;19.50;;;2.69;48.50;102941.50;5011916;28;20447;-74
2022/03/01 08:16:11;;;;;;;15.15;9.48;;;2.60;19.70;;;2.72;48.21;102945.78;5029512;28;20212;-73
2022/03/01 08:18:41;;;;;;;14.95;10.23;;;2.60;18.90;;;2.96;48.21;102946.81;5024455;28;20190;-73
2022/03/01 08:21:14;;;;;;;13.73;9.45;;;2.80;19.30;;;2.95;47.88;102947.81;5017331;28;20174;-74
2022/03/01 08:23:44;;;;;;;12.52;9.30;;;2.90;18.70;;;3.06;47.54;102948.78;4997486;28;20218;-73
2022/03/01 08:26:15;;;;;;;13.68;9.80;;;2.90;18.30;;;3.27;47.27;102954.50;4996364;28;20233;-73
2022/03/01 08:28:53;;;;;;;14.30;9.82;;;3.10;18.30;;;3.26;47.47;102950.09;4997687;28;20203;-76
2022/03/01 08:31:30;;;;;;;12.75;9.50;;;3.20;17.80;;;3.25;47.03;102944.84;4996896;28;20638;-73
2022/03/01 08:34:00;;;;;;;18.60;9.63;;;3.20;16.90;;;3.43;47.09;102947.13;4996607;28;20175;-73
2022/03/01 08:36:30;;;;;;;14.35;10.60;;;3.30;16.70;;;3.68;46.42;102953.47;5014694;28;20186;-73
2022/03/01 08:39:00;;;;;;;20.98;12.15;;;3.40;17.20;;;3.79;46.30;102938.34;5016200;28;20210;-75
2022/03/01 08:41:33;;;;;;;15.55;9.70;;;3.60;16.60;;;3.86;45.90;102942.31;5014539;28;20225;-74
2022/03/01 08:44:04;;;;;;;12.48;7.22;;;3.60;16.00;;;3.83;45.27;102937.16;5015782;28;20190;-74
2022/03/01 08:46:34;;;;;;;20.83;9.88;;;3.70;15.70;;;3.77;45.54;102934.06;4999556;28;20198;-72
2022/03/01 08:49:03;;;;;;;12.52;9.50;;;3.70;14.80;;;3.64;45.62;102941.22;5023744;28;20199;-74
2022/03/01 08:51:34;;;;;;;13.90;9.32;;;3.70;13.70;;;3.79;45.91;102929.44;5020642;28;20413;-74
2022/03/01 08:54:05;;;;;;;17.52;9.35;;;3.70;13.50;;;4.00;45.24;102927.91;5007280;28;20194;-76
2022/03/01 08:56:39;;;;;;;20.08;10.50;;;3.80;13.60;;;4.14;45.23;102921.56;5015818;28;20170;-73
2022/03/01 08:59:09;;;;;;;16.13;9.50;;;3.90;13.20;;;4.25;44.73;102927.00;5014484;28;20206;-73
2022/03/01 09:01:39;;;;;;;17.80;9.00;;;4.00;12.80;;;4.20;44.59;102930.03;5014658;28;20182;-74
2022/03/01 09:04:09;;;;;;;14.60;9.93;;;4.10;12.20;;;4.41;44.60;102926.72;5014837;28;20657;-74
2022/03/01 09:06:40;;;;;;;13.50;9.02;;;4.20;12.20;;;4.57;44.15;102916.56;5025739;28;20660;-74
2022/03/01 09:09:10;;;;;;;13.93;10.07;;;4.40;12.20;;;4.56;44.36;102926.44;5014859;28;20434;-76
2022/03/01 09:11:42;;;;;;;12.13;9.02;;;4.40;11.50;;;4.73;43.78;102920.69;4994377;28;20198;-73
2022/03/01 09:14:11;;;;;;;13.98;9.85;;;4.50;11.00;;;4.93;43.91;102924.56;4994707;28;20193;-74
2022/03/01 09:16:41;;;;;;;16.13;9.90;;;4.70;11.10;;;5.09;43.62;102916.19;4977998;28;20198;-73
2022/03/01 09:19:10;;;;;;;14.48;10.32;;;4.80;10.90;;;5.35;43.48;102914.16;5006260;28;20238;-73
2022/03/01 09:21:39;;;;;;;14.38;10.07;;;5.00;10.80;;;5.35;42.66;102908.81;4995850;28;20214;-72
2022/03/01 09:24:08;;;;;;;10.13;7.70;;;5.10;10.10;;;5.28;42.12;102910.28;4994619;28;20486;-75
2022/03/01 09:26:37;;;;;;;14.48;10.20;;;5.10;9.10;;;5.33;42.99;102900.00;4996648;28;20194;-72
2022/03/01 09:29:08;;;;;;;15.93;9.50;;;5.10;9.00;;;5.44;41.96;102892.81;5008260;28;20207;-72
2022/03/01 09:31:37;;;;;;;11.68;9.30;;;5.20;8.50;;;5.42;42.60;102897.44;4990084;28;20447;-74
2022/03/01 09:34:07;;;;;;;15.05;10.68;;;5.20;7.60;;;5.46;42.80;102893.56;4998960;28;20531;-75
2022/03/01 09:36:36;;;;;;;14.40;10.10;;;5.20;7.10;;;5.55;41.50;102892.00;5002962;28;20202;-74
2022/03/01 09:39:07;;;;;;;12.32;9.80;;;5.30;6.70;;;5.60;41.72;102887.09;5019497;28;20213;-74
2022/03/01 09:41:37;;;;;;;13.35;9.35;;;5.30;6.20;;;5.66;41.35;102887.44;5019116;28;20198;-76
2022/03/01 09:44:09;;;;;;;13.35;9.13;;;5.40;5.40;;;5.86;40.63;102883.19;5008512;28;20544;-75
2022/03/01 09:46:39;;;;;;;17.50;9.57;;;5.50;5.10;;;5.83;40.11;102880.75;5010067;28;20213;-73
2022/03/01 09:49:09;;;;;;;11.60;9.45;;;5.60;4.30;;;5.84;40.69;102882.47;5004093;28;20705;-76
2022/03/01 09:51:40;;;;;;;15.45;10.80;;;5.60;3.80;;;5.92;40.39;102865.75;5013633;28;20174;-74
2022/03/01 09:54:09;;;;;;;11.23;8.40;;;5.60;3.00;;;6.05;40.93;102867.31;5013109;28;20221;-73
2022/03/01 09:56:38;;;;;;;10.52;9.18;;;5.70;3.30;;;5.95;40.17;102871.75;5012902;28;20186;-74
2022/03/01 09:59:08;;;;;;;12.90;8.90;;;5.80;2.20;;;6.07;40.79;102862.69;5011970;28;20218;-75
2022/03/01 10:01:38;;;;;;;15.02;10.55;;;5.90;1.90;;;6.30;40.63;102859.91;5013300;28;20668;-76
2022/03/01 10:04:10;;;;;;;13.23;9.35;;;6.00;2.10;;;6.40;40.08;102864.41;5013345;28;20758;-75
2022/03/01 10:06:46;;;;;;;9.85;7.57;;;6.10;1.50;;;6.33;38.39;102854.31;5013060;28;20185;-75
2022/03/01 10:09:20;;;;;;;15.75;8.95;;;6.10;1.00;;;6.31;37.60;102846.34;5012997;28;20293;-73
2022/03/01 10:11:50;;;;;;;14.18;9.30;;;6.10;1.00;;;6.47;38.58;102846.78;5013367;28;20236;-73
2022/03/01 10:14:31;;;;;;;11.20;9.77;;;6.30;1.00;;;6.52;38.01;102843.72;4997377;28;20720;-73
2022/03/01 10:17:11;;;;;;;13.73;7.55;;;6.30;5.40;;;6.68;37.38;102837.91;5010011;28;20206;-73